Time;durP1;ratioP1;P1;durP2;ratioP2;P2;SDS_P1;SDS_P2;PMS_P1;PMS_P2;Temp;Humidity;BMP_temperature;BMP_pressure;BME280_temperature;BME280_humidity;BME280_pressure;Samples;Min_cycle;Max_cycle;Signal;HPM_P1;HPM_P2
2021/08/15 00:00:09;;;;;;;1999.90;999.90;;;;;;;17.12;39.38;101217.38;4984989;28;97498;-75
2021/08/15 00:02:38;;;;;;;1999.90;999.90;;;;;;;17.02;39.64;101220.94;4985857;28;97753;-76
2021/08/15 00:05:08;;;;;;;1999.90;999.90;;;;;;;16.94;39.83;101226.28;4982054;28;99212;-76
2021/08/15 00:07:38;;;;;;;1999.90;999.90;;;;;;;16.86;40.14;101213.72;4986325;28;97273;-77
2021/08/15 00:10:07;;;;;;;1999.90;999.90;;;;;;;16.83;40.23;101216.44;4982487;28;97406;-76
2021/08/15 00:12:35;;;;;;;1999.90;999.90;;;;;;;16.83;40.76;101216.44;4982091;28;100791;-76
2021/08/15 00:15:03;;;;;;;1999.90;999.90;;;;;;;16.85;40.42;101218.19;4984366;28;97454;-76
2021/08/15 00:17:31;;;;;;;1999.90;999.90;;;;;;;16.87;40.22;101210.16;4983158;28;97701;-76
2021/08/15 00:19:58;;;;;;;1999.90;999.90;;;;;;;16.89;40.42;101209.25;4980234;28;97492;-76
2021/08/15 00:22:26;;;;;;;1999.90;999.90;;;;;;;16.92;40.25;101211.97;4981448;28;101051;-76
2021/08/15 00:24:55;;;;;;;1999.90;999.90;;;;;;;16.90;40.06;101208.38;4985447;28;99090;-76
2021/08/15 00:27:23;;;;;;;1999.90;999.90;;;;;;;16.86;40.34;101206.56;4982156;28;97672;-76
2021/08/15 00:29:51;;;;;;;1999.90;999.90;;;;;;;16.86;40.19;101205.66;4985239;28;97195;-77
2021/08/15 00:32:18;;;;;;;1999.90;999.90;;;;;;;16.82;40.16;101206.53;4985816;28;97369;-76
2021/08/15 00:34:46;;;;;;;1999.90;999.90;;;;;;;16.76;40.65;101206.56;4983651;28;100143;-76
2021/08/15 00:37:14;;;;;;;1999.90;999.90;;;;;;;16.77;40.82;101211.03;4983568;28;96977;-76
2021/08/15 00:39:42;;;;;;;1999.90;999.90;;;;;;;16.83;40.45;101203.88;4984709;28;96879;-75
2021/08/15 00:42:11;;;;;;;1999.90;999.90;;;;;;;16.89;40.43;101211.03;4983155;28;100772;-76
2021/08/15 00:44:39;;;;;;;1999.90;999.90;;;;;;;16.93;40.46;101204.78;4966393;28;102475;-76
2021/08/15 00:47:07;;;;;;;1999.90;999.90;;;;;;;16.92;40.39;101208.38;4998551;28;98296;-76
2021/08/15 00:49:35;;;;;;;1999.90;999.90;;;;;;;16.91;40.23;101207.47;4984458;28;96945;-76
2021/08/15 00:52:05;;;;;;;1999.90;999.90;;;;;;;16.92;40.44;101214.66;4982614;28;99579;-76
2021/08/15 00:54:34;;;;;;;1999.90;999.90;;;;;;;16.90;40.67;101213.75;4983976;28;97046;-76
2021/08/15 00:57:02;;;;;;;1999.90;999.90;;;;;;;16.86;40.61;101219.09;4983273;28;97056;-76
2021/08/15 00:59:32;;;;;;;1999.90;999.90;;;;;;;16.73;40.80;101206.53;4966748;28;97444;-76
2021/08/15 01:01:59;;;;;;;1999.90;999.90;;;;;;;16.63;40.90;101218.13;4984511;28;96829;-76
2021/08/15 01:04:28;;;;;;;1999.90;999.90;;;;;;;16.55;41.46;101217.19;4982231;28;99673;-76
2021/08/15 01:06:56;;;;;;;1999.90;999.90;;;;;;;16.44;41.47;101209.09;4982055;28;97239;-77
2021/08/15 01:09:23;;;;;;;1999.90;999.90;;;;;;;16.39;41.52;101209.97;4983686;28;97170;-77
2021/08/15 01:11:51;;;;;;;1999.90;999.90;;;;;;;16.34;41.89;101206.38;4983202;28;98338;-76
2021/08/15 01:14:19;;;;;;;1999.90;999.90;;;;;;;16.28;41.71;101209.94;4981849;28;97668;-77
2021/08/15 01:16:48;;;;;;;1999.90;999.90;;;;;;;16.28;42.26;101206.34;4984710;28;96899;-76
2021/08/15 01:19:16;;;;;;;1999.90;999.90;;;;;;;16.29;41.83;101203.66;4984490;28;97504;-77
2021/08/15 01:21:44;;;;;;;1999.90;999.90;;;;;;;16.32;42.08;101206.38;4982376;28;99406;-76
2021/08/15 01:24:12;;;;;;;1999.90;999.90;;;;;;;16.30;41.91;101207.25;4981551;28;99817;-76
2021/08/15 01:26:41;;;;;;;1999.90;999.90;;;;;;;16.21;42.08;101207.19;4984367;28;96782;-76
2021/08/15 01:29:10;;;;;;;1999.90;999.90;;;;;;;16.09;42.50;101208.94;4983294;28;97317;-76
2021/08/15 01:31:37;;;;;;;1999.90;999.90;;;;;;;16.04;42.53;101212.47;4983820;28;97834;-75
2021/08/15 01:34:05;;;;;;;1999.90;999.90;;;;;;;15.98;42.81;101213.31;4981969;28;99585;-76
2021/08/15 01:36:33;;;;;;;1999.90;999.90;;;;;;;15.90;42.77;101209.66;4984540;28;96791;-77
2021/08/15 01:39:01;;;;;;;1999.90;999.90;;;;;;;15.79;43.04;101211.41;4982722;28;97136;-76
2021/08/15 01:41:28;;;;;;;1999.90;999.90;;;;;;;15.73;43.51;101210.47;4984225;28;98375;-77
2021/08/15 01:43:57;;;;;;;1999.90;999.90;;;;;;;15.65;43.38;101207.72;4983688;28;97613;-77
2021/08/15 01:46:29;;;;;;;1999.90;999.90;;;;;;;15.61;43.80;101205.88;4983339;28;97147;-76
2021/08/15 01:48:58;;;;;;;1999.90;999.90;;;;;;;15.63;44.03;101208.63;4981024;28;100595;-76
2021/08/15 01:51:27;;;;;;;1999.90;999.90;;;;;;;15.65;44.30;101213.09;4983181;28;101219;-76
2021/08/15 01:53:57;;;;;;;1999.90;999.90;;;;;;;15.71;43.84;101214.91;4967030;28;100915;-77
2021/08/15 01:56:25;;;;;;;1999.90;999.90;;;;;;;15.76;44.03;101210.47;4980921;28;98425;-76
2021/08/15 01:58:52;;;;;;;1999.90;999.90;;;;;;;15.79;43.66;101205.16;4981117;28;98220;-76
2021/08/15 02:01:21;;;;;;;1999.90;999.90;;;;;;;15.81;43.53;101208.75;4982316;28;98238;-76
2021/08/15 02:03:52;;;;;;;1999.90;999.90;;;;;;;15.81;43.94;101198.88;4979999;28;99501;-76
2021/08/15 02:06:19;;;;;;;1999.90;999.90;;;;;;;15.80;43.62;101197.09;4980251;28;97248;-76
2021/08/15 02:08:48;;;;;;;1999.90;999.90;;;;;;;15.84;43.93;101200.69;4982783;28;97654;-76
2021/08/15 02:11:19;;;;;;;1999.90;999.90;;;;;;;15.82;43.79;101197.09;4965211;28;99595;-77
2021/08/15 02:13:47;;;;;;;1999.90;999.90;;;;;;;15.76;43.60;101200.63;4982241;28;97860;-77
2021/08/15 02:16:15;;;;;;;1999.90;999.90;;;;;;;15.80;43.72;101188.13;4983383;28;97127;-77
2021/08/15 02:18:43;;;;;;;1999.90;999.90;;;;;;;15.86;43.92;101197.16;4984235;28;97283;-77
2021/08/15 02:21:18;;;;;;;1999.90;999.90;;;;;;;15.89;44.18;101194.47;4985723;28;100610;-77
2021/08/15 02:23:46;;;;;;;1999.90;999.90;;;;;;;15.91;43.78;101195.38;4986087;28;98183;-76
2021/08/15 02:26:14;;;;;;;1999.90;999.90;;;;;;;15.94;43.88;101187.34;4984112;28;97077;-76
2021/08/15 02:28:41;;;;;;;1999.90;999.90;;;;;;;15.98;43.83;101186.47;4987111;28;96944;-76
2021/08/15 02:31:09;;;;;;;1999.90;999.90;;;;;;;16.04;43.83;101186.53;4985753;28;97642;-76
2021/08/15 02:33:37;;;;;;;1999.90;999.90;;;;;;;16.09;43.81;101191.91;4986527;28;99289;-77
2021/08/15 02:36:05;;;;;;;1999.90;999.90;;;;;;;16.09;43.61;101181.19;4985605;28;97401;-76
2021/08/15 02:38:34;;;;;;;1999.90;999.90;;;;;;;16.06;43.69;101183.84;4986194;28;97511;-77
2021/08/15 02:41:03;;;;;;;1999.90;999.90;;;;;;;16.09;43.53;101183.88;5002148;28;98747;-77
2021/08/15 02:43:31;;;;;;;1999.90;999.90;;;;;;;16.10;43.55;101181.19;4985069;28;97694;-76
2021/08/15 02:45:58;;;;;;;1999.90;999.90;;;;;;;16.14;43.57;101173.16;4985878;28;96951;-76
2021/08/15 02:48:27;;;;;;;1999.90;999.90;;;;;;;16.20;43.77;101175.84;4986651;28;96859;-76
2021/08/15 02:50:55;;;;;;;1999.90;999.90;;;;;;;16.23;43.82;101166.03;4984105;28;100375;-75
2021/08/15 02:53:24;;;;;;;1999.90;999.90;;;;;;;16.27;43.58;101175.88;4983606;28;100394;-75
2021/08/15 02:55:53;;;;;;;1999.90;999.90;;;;;;;16.29;43.50;101170.53;4985901;28;97627;-75
2021/08/15 02:58:20;;;;;;;1999.90;999.90;;;;;;;16.27;43.33;101164.28;4985581;28;97171;-76
2021/08/15 03:00:48;;;;;;;1999.90;999.90;;;;;;;16.25;43.68;101163.38;4967643;28;99406;-76
2021/08/15 03:03:16;;;;;;;1999.90;999.90;;;;;;;16.21;43.35;101167.81;4987009;28;98747;-75
2021/08/15 03:05:44;;;;;;;1999.90;999.90;;;;;;;16.17;43.69;101173.16;4985318;28;98221;-75
2021/08/15 03:08:12;;;;;;;1999.90;999.90;;;;;;;16.17;43.67;101175.84;4986241;28;97902;-75
2021/08/15 03:10:39;;;;;;;1999.90;999.90;;;;;;;16.11;43.76;101171.34;5000575;28;97733;-76
2021/08/15 03:13:08;;;;;;;1999.90;999.90;;;;;;;16.09;43.56;101174.03;4983527;28;99183;-76
2021/08/15 03:15:38;;;;;;;1999.90;999.90;;;;;;;16.07;43.88;101175.81;4983016;28;97535;-76
2021/08/15 03:18:06;;;;;;;1999.90;999.90;;;;;;;16.06;43.85;101171.34;4985681;28;97106;-76
2021/08/15 03:20:34;;;;;;;1999.90;999.90;;;;;;;16.07;43.51;101169.53;4968066;28;100826;-75
2021/08/15 03:23:02;;;;;;;1999.90;999.90;;;;;;;16.05;43.96;101164.16;4985135;28;99195;-76
2021/08/15 03:25:30;;;;;;;1999.90;999.90;;;;;;;16.01;43.86;101166.84;4984139;28;99243;-76
2021/08/15 03:27:58;;;;;;;1999.90;999.90;;;;;;;15.96;44.07;101161.41;4984759;28;97778;-76
2021/08/15 03:30:27;;;;;;;1999.90;999.90;;;;;;;15.93;44.17;101168.53;4966726;28;98090;-75
2021/08/15 03:32:54;;;;;;;1999.90;999.90;;;;;;;15.83;44.01;101167.59;4985725;28;100476;-75
2021/08/15 03:35:22;;;;;;;1999.90;999.90;;;;;;;15.78;44.05;101157.72;4985659;28;97202;-75
2021/08/15 03:37:50;;;;;;;1999.90;999.90;;;;;;;15.72;44.51;101160.38;4984996;28;96956;-75
2021/08/15 03:40:18;;;;;;;1999.90;999.90;;;;;;;15.70;44.52;101159.47;4983110;28;99316;-75
2021/08/15 03:42:46;;;;;;;1999.90;999.90;;;;;;;15.67;44.75;101159.44;4983966;28;99123;-76
2021/08/15 03:45:14;;;;;;;1999.90;999.90;;;;;;;15.62;45.10;101164.78;4984987;28;97099;-77
2021/08/15 03:47:43;;;;;;;1999.90;999.90;;;;;;;15.59;45.51;101167.47;4984873;28;96783;-76
2021/08/15 03:50:11;;;;;;;1999.90;999.90;;;;;;;15.58;45.55;101164.72;4984186;28;98440;-76
2021/08/15 03:52:40;;;;;;;1999.90;999.90;;;;;;;15.59;45.67;101156.72;4984654;28;98144;-76
2021/08/15 03:55:11;;;;;;;1999.90;999.90;;;;;;;15.62;45.23;101155.81;4985214;28;98034;-76
2021/08/15 03:57:39;;;;;;;1999.90;999.90;;;;;;;15.65;45.69;101155.88;5001059;28;97617;-73
2021/08/15 04:00:08;;;;;;;1999.90;999.90;;;;;;;15.67;45.69;101146.00;4983174;28;101120;-72
2021/08/15 04:02:36;;;;;;;1999.90;999.90;;;;;;;15.71;45.45;101150.50;4982738;28;99265;-73
2021/08/15 04:05:06;;;;;;;1999.90;999.90;;;;;;;15.71;45.50;101156.78;4982450;28;96960;-74
2021/08/15 04:07:34;;;;;;;1999.90;999.90;;;;;;;15.73;45.30;101156.78;4977549;28;97314;-74
2021/08/15 04:10:03;;;;;;;1999.90;999.90;;;;;;;15.73;45.55;101163.06;4975409;28;99236;-74
2021/08/15 04:12:31;;;;;;;1999.90;999.90;;;;;;;15.72;45.52;101155.00;4983596;28;98819;-73
2021/08/15 04:14:58;;;;;;;1999.90;999.90;;;;;;;15.72;45.14;101145.16;4983134;28;97661;-73
2021/08/15 04:17:26;;;;;;;1999.90;999.90;;;;;;;15.73;45.62;101143.38;4983376;28;97336;-73
2021/08/15 04:19:54;;;;;;;1999.90;999.90;;;;;;;15.73;45.39;101136.22;4983126;28;98146;-73
2021/08/15 04:22:23;;;;;;;1999.90;999.90;;;;;;;15.75;45.71;101139.81;4984485;28;98081;-73
2021/08/15 04:24:51;;;;;;;1999.90;999.90;;;;;;;15.75;45.71;101134.47;4983468;28;98372;-73
2021/08/15 04:27:18;;;;;;;1999.90;999.90;;;;;;;15.75;45.83;101139.81;4984380;28;97569;-74
2021/08/15 04:29:46;;;;;;;1999.90;999.90;;;;;;;15.78;45.71;101139.84;4983073;28;99603;-73
2021/08/15 04:32:14;;;;;;;1999.90;999.90;;;;;;;15.78;45.85;101142.50;4984191;28;99219;-73
2021/08/15 04:34:42;;;;;;;1999.90;999.90;;;;;;;15.80;45.61;101143.44;4984208;28;97515;-73
2021/08/15 04:37:09;;;;;;;1999.90;999.90;;;;;;;15.78;45.53;101149.66;4983004;28;97319;-73
2021/08/15 04:39:38;;;;;;;1999.90;999.90;;;;;;;15.73;45.72;101149.66;4983781;28;99335;-73
2021/08/15 04:42:06;;;;;;;1999.90;999.90;;;;;;;15.68;45.58;101138.00;4984150;28;97583;-73
2021/08/15 04:44:34;;;;;;;1999.90;999.90;;;;;;;15.63;45.73;101141.53;4983479;28;97081;-73
2021/08/15 04:47:03;;;;;;;1999.90;999.90;;;;;;;15.60;45.81;101147.78;4984440;28;96821;-74
2021/08/15 04:49:31;;;;;;;1999.90;999.90;;;;;;;15.54;45.72;101150.41;4982314;28;97951;-73
2021/08/15 04:51:58;;;;;;;1999.90;999.90;;;;;;;15.49;45.60;101156.63;4984109;28;100292;-73
2021/08/15 04:54:27;;;;;;;1999.90;999.90;;;;;;;15.42;46.03;101157.47;4982932;28;98540;-73
2021/08/15 04:56:56;;;;;;;1999.90;999.90;;;;;;;15.35;45.68;101159.22;4982932;28;97277;-73
2021/08/15 04:59:25;;;;;;;1999.90;999.90;;;;;;;15.27;46.03;101155.53;4985521;28;97919;-74
2021/08/15 05:01:53;;;;;;;1999.90;999.90;;;;;;;15.21;45.83;101157.28;4984561;28;97884;-73
2021/08/15 05:04:21;;;;;;;1999.90;999.90;;;;;;;15.12;46.14;101144.69;4965182;28;97429;-73
2021/08/15 05:06:49;;;;;;;1999.90;999.90;;;;;;;15.11;46.03;101148.25;4982221;28;97305;-73
2021/08/15 05:09:16;;;;;;;1999.90;999.90;;;;;;;15.07;46.06;101147.34;4986201;28;99283;-73
2021/08/15 05:11:46;;;;;;;1999.90;999.90;;;;;;;15.09;46.38;101147.34;4984387;28;97724;-73
2021/08/15 05:14:15;;;;;;;1999.90;999.90;;;;;;;15.08;46.03;101146.44;4984314;28;97295;-74
2021/08/15 05:16:43;;;;;;;1999.90;999.90;;;;;;;15.09;46.09;101152.72;4983966;28;97080;-73
2021/08/15 05:19:11;;;;;;;1999.90;999.90;;;;;;;15.12;46.39;101142.00;4982434;28;100662;-73
2021/08/15 05:21:38;;;;;;;1999.90;999.90;;;;;;;15.14;46.34;101145.59;4983518;28;99166;-74
2021/08/15 05:24:06;;;;;;;1999.90;999.90;;;;;;;15.17;45.97;101142.06;4983538;28;96882;-73
2021/08/15 05:26:34;;;;;;;1999.90;999.90;;;;;;;15.20;46.38;101142.97;4999871;28;97380;-73
2021/08/15 05:29:02;;;;;;;1999.90;999.90;;;;;;;15.24;46.25;101151.94;4982174;28;99353;-73
2021/08/15 05:31:31;;;;;;;1999.90;999.90;;;;;;;15.30;46.16;101144.91;4981988;28;99875;-73
2021/08/15 05:33:59;;;;;;;1999.90;999.90;;;;;;;15.36;45.75;101144.91;4985818;28;96866;-73
2021/08/15 05:36:27;;;;;;;1999.90;999.90;;;;;;;15.42;45.99;101138.69;4985553;28;97523;-73
2021/08/15 05:38:55;;;;;;;1999.90;999.90;;;;;;;15.48;46.18;101136.06;4980631;28;99480;-73
2021/08/15 05:41:23;;;;;;;1999.90;999.90;;;;;;;15.54;46.10;101126.25;4984604;28;97573;-74
2021/08/15 05:43:51;;;;;;;1999.90;999.90;;;;;;;15.61;45.94;101127.22;4980978;28;97788;-73
2021/08/15 05:46:18;;;;;;;1999.90;999.90;;;;;;;15.63;45.69;101134.38;4980908;28;97357;-73
2021/08/15 05:48:48;;;;;;;1999.90;999.90;;;;;;;15.64;45.60;101141.53;4982635;28;97839;-73
2021/08/15 05:51:15;;;;;;;1999.90;999.90;;;;;;;15.66;44.98;101134.41;4965066;28;100085;-73
2021/08/15 05:53:43;;;;;;;1999.90;999.90;;;;;;;15.64;45.40;101124.53;4987394;28;97820;-74
2021/08/15 05:56:12;;;;;;;1999.90;999.90;;;;;;;15.62;45.15;101134.38;4987203;28;96995;-74
2021/08/15 05:58:40;;;;;;;1999.90;999.90;;;;;;;15.62;45.30;101132.59;4986894;28;97603;-74
2021/08/15 06:01:09;;;;;;;1999.90;999.90;;;;;;;15.64;45.55;101129.91;4986462;28;99220;-74
2021/08/15 06:03:37;;;;;;;1999.90;999.90;;;;;;;15.67;45.42;101135.28;4983436;28;99112;-74
2021/08/15 06:06:06;;;;;;;1999.90;999.90;;;;;;;15.70;45.78;101141.56;4982370;28;97088;-73
2021/08/15 06:08:34;;;;;;;1999.90;999.90;;;;;;;15.75;45.59;101133.56;4975892;28;99477;-74
2021/08/15 06:11:02;;;;;;;1999.90;999.90;;;;;;;15.81;45.24;101139.84;4979755;28;99525;-74
2021/08/15 06:13:30;;;;;;;1999.90;999.90;;;;;;;15.86;45.10;101127.38;4985609;28;98098;-74
2021/08/15 06:15:58;;;;;;;1999.90;999.90;;;;;;;15.89;45.19;101122.00;4986795;28;96923;-75
2021/08/15 06:18:25;;;;;;;1999.90;999.90;;;;;;;15.96;44.81;101118.44;4985339;28;98245;-75
2021/08/15 06:20:53;;;;;;;1999.90;999.90;;;;;;;16.00;44.73;101122.03;4984831;28;100297;-75
2021/08/15 06:23:22;;;;;;;1999.90;999.90;;;;;;;16.04;44.17;101129.25;4986520;28;96926;-75
2021/08/15 06:25:50;;;;;;;1999.90;999.90;;;;;;;16.05;43.74;101134.63;4984420;28;99144;-75
2021/08/15 06:28:17;;;;;;;1999.90;999.90;;;;;;;16.05;44.11;101120.28;4985613;28;97270;-75
2021/08/15 06:30:45;;;;;;;1999.90;999.90;;;;;;;16.04;43.83;101124.78;4985316;28;98128;-75
2021/08/15 06:33:17;;;;;;;1999.90;999.90;;;;;;;16.06;43.15;101119.44;4985526;28;98806;-75
2021/08/15 06:35:44;;;;;;;1999.90;999.90;;;;;;;16.06;42.69;101124.78;5004533;28;96920;-75
2021/08/15 06:38:12;;;;;;;1999.90;999.90;;;;;;;16.04;42.12;101121.19;5002004;28;102849;-75
2021/08/15 06:40:41;;;;;;;1999.90;999.90;;;;;;;16.00;42.42;101122.03;4988760;28;96846;-75
2021/08/15 06:43:10;;;;;;;1999.90;999.90;;;;;;;16.01;42.10;101123.88;4984687;28;97545;-74
2021/08/15 06:45:38;;;;;;;1999.90;999.90;;;;;;;16.02;42.16;101115.84;4987583;28;97047;-75
2021/08/15 06:48:07;;;;;;;1999.90;999.90;;;;;;;16.04;42.66;101127.47;5002145;28;100436;-74
2021/08/15 06:50:35;;;;;;;1999.90;999.90;;;;;;;16.06;42.91;101117.66;4987952;28;97673;-75
2021/08/15 06:53:03;;;;;;;1999.90;999.90;;;;;;;16.11;42.94;101106.91;4984915;28;97264;-75
2021/08/15 06:55:31;;;;;;;1999.90;999.90;;;;;;;16.19;43.07;101112.31;5002391;28;97708;-75
2021/08/15 06:58:00;;;;;;;1999.90;999.90;;;;;;;16.25;43.11;101115.03;4983181;28;99280;-75
2021/08/15 07:00:28;;;;;;;1999.90;999.90;;;;;;;16.34;42.98;101110.59;4985516;28;98993;-75
2021/08/15 07:02:55;;;;;;;1999.90;999.90;;;;;;;16.41;43.41;101111.47;4984658;28;96871;-75
2021/08/15 07:05:24;;;;;;;1999.90;999.90;;;;;;;16.46;43.39;101112.38;4985657;28;97653;-75
2021/08/15 07:07:52;;;;;;;1999.90;999.90;;;;;;;16.52;43.10;101118.69;4984953;28;99981;-75
2021/08/15 07:10:20;;;;;;;1999.90;999.90;;;;;;;16.54;43.49;101127.63;4984695;28;100544;-75
2021/08/15 07:12:52;;;;;;;1999.90;999.90;;;;;;;16.60;43.36;101124.94;4983782;28;97163;-75
2021/08/15 07:15:28;;;;;;;1999.90;999.90;;;;;;;16.63;43.62;101127.66;4983019;28;98140;-75
2021/08/15 07:17:56;;;;;;;1999.90;999.90;;;;;;;16.66;43.81;101124.06;4982248;28;97996;-74
2021/08/15 07:20:25;;;;;;;1999.90;999.90;;;;;;;16.68;43.76;101112.44;4982268;28;100958;-75
2021/08/15 07:22:53;;;;;;;1999.90;999.90;;;;;;;16.72;43.72;101114.28;4962220;28;97228;-75
2021/08/15 07:25:24;;;;;;;1999.90;999.90;;;;;;;16.77;43.63;101112.47;4997975;28;97845;-75
2021/08/15 07:27:52;;;;;;;1999.90;999.90;;;;;;;16.82;43.65;101112.47;4982889;28;97621;-74
2021/08/15 07:30:20;;;;;;;1999.90;999.90;;;;;;;16.84;43.69;101108.91;4983152;28;98002;-75
2021/08/15 07:32:54;;;;;;;1999.90;999.90;;;;;;;16.85;43.85;101110.66;4983227;28;98945;-75
2021/08/15 07:35:22;;;;;;;1999.90;999.90;;;;;;;16.85;43.74;101099.06;4980468;28;97126;-75
2021/08/15 07:37:50;;;;;;;1999.90;999.90;;;;;;;16.88;43.88;101097.25;4982659;28;97659;-75
2021/08/15 07:40:19;;;;;;;1999.90;999.90;;;;;;;16.93;43.81;101098.16;4965344;28;100019;-75
2021/08/15 07:42:50;;;;;;;1999.90;999.90;;;;;;;16.99;43.82;101091.88;4980887;28;97387;-74
2021/08/15 07:45:19;;;;;;;1999.90;999.90;;;;;;;17.06;43.53;101096.34;4980444;28;97414;-73
2021/08/15 07:47:47;;;;;;;1999.90;999.90;;;;;;;17.13;43.61;101095.44;4973499;28;100929;-73
2021/08/15 07:50:16;;;;;;;1999.90;999.90;;;;;;;17.18;43.68;101088.28;4976522;28;98133;-75
2021/08/15 07:52:44;;;;;;;1999.90;999.90;;;;;;;17.24;43.68;101093.63;4979739;28;98420;-76
2021/08/15 07:55:12;;;;;;;1999.90;999.90;;;;;;;17.29;43.38;101101.72;4982291;28;97102;-75
2021/08/15 07:57:40;;;;;;;1999.90;999.90;;;;;;;17.36;43.22;101098.13;4981162;28;100846;-74
2021/08/15 08:00:09;;;;;;;1999.90;999.90;;;;;;;17.40;42.81;101105.31;4980488;28;100579;-75
2021/08/15 08:02:36;;;;;;;1999.90;999.90;;;;;;;17.47;42.43;101093.66;4981180;28;97818;-75
2021/08/15 08:05:05;;;;;;;1999.90;999.90;;;;;;;17.50;42.14;101097.22;4982230;28;96993;-76
2021/08/15 08:07:34;;;;;;;1999.90;999.90;;;;;;;17.51;42.08;101100.81;4982611;28;97698;-75
2021/08/15 08:10:03;;;;;;;1999.90;999.90;;;;;;;17.55;41.40;101091.81;4978683;28;98435;-76
2021/08/15 08:12:33;;;;;;;1999.90;999.90;;;;;;;17.60;41.34;101090.91;4980815;28;98433;-75
2021/08/15 08:15:00;;;;;;;1999.90;999.90;;;;;;;17.59;41.17;101090.91;4963390;28;99637;-74
2021/08/15 08:17:28;;;;;;;1999.90;999.90;;;;;;;17.60;40.89;101088.22;4978776;28;98917;-75
2021/08/15 08:19:56;;;;;;;1999.90;999.90;;;;;;;17.58;40.80;101092.69;4978597;28;100220;-74
2021/08/15 08:22:24;;;;;;;1999.90;999.90;;;;;;;17.56;40.54;101086.47;4983194;28;97342;-74
2021/08/15 08:24:53;;;;;;;1999.90;999.90;;;;;;;17.60;40.58;101082.81;4981094;28;96735;-74
2021/08/15 08:27:21;;;;;;;1999.90;999.90;;;;;;;17.61;40.56;101090.03;4980684;28;99509;-74
2021/08/15 08:29:49;;;;;;;1999.90;999.90;;;;;;;17.64;40.67;101089.09;4982587;28;99149;-75
2021/08/15 08:32:17;;;;;;;1999.90;999.90;;;;;;;17.66;40.62;101077.44;4980861;28;96900;-75
2021/08/15 08:34:45;;;;;;;1999.90;999.90;;;;;;;17.71;40.23;101069.38;4979339;28;97137;-76
2021/08/15 08:37:13;;;;;;;1999.90;999.90;;;;;;;17.74;40.07;101078.31;4979285;28;98127;-75
2021/08/15 08:39:40;;;;;;;1999.90;999.90;;;;;;;17.75;39.86;101074.72;4980393;28;99248;-75
2021/08/15 08:42:09;;;;;;;1999.90;999.90;;;;;;;17.81;40.02;101076.50;4983252;28;97273;-76
2021/08/15 08:44:37;;;;;;;1999.90;999.90;;;;;;;17.83;39.61;101067.50;4974056;28;98418;-75
2021/08/15 08:47:07;;;;;;;1999.90;999.90;;;;;;;17.92;39.53;101050.41;4978415;28;100780;-74
2021/08/15 08:49:36;;;;;;;1999.90;999.90;;;;;;;17.98;39.51;101048.56;4962135;28;100649;-74
2021/08/15 08:52:04;;;;;;;1999.90;999.90;;;;;;;18.02;39.17;101034.19;4979352;28;97920;-74
2021/08/15 08:54:33;;;;;;;1999.90;999.90;;;;;;;18.05;39.05;101033.34;4997055;28;97102;-73
2021/08/15 08:57:01;;;;;;;1999.90;999.90;;;;;;;18.10;38.92;101025.22;4977750;28;98647;-73
2021/08/15 08:59:30;;;;;;;1999.90;999.90;;;;;;;18.15;39.00;101018.03;4975287;28;98895;-73
2021/08/15 09:01:57;;;;;;;1999.90;999.90;;;;;;;18.20;39.12;101037.72;4977477;28;96891;-73
2021/08/15 09:04:25;;;;;;;1999.90;999.90;;;;;;;18.24;39.03;101043.06;4980154;28;97855;-74
2021/08/15 09:06:53;;;;;;;1999.90;999.90;;;;;;;18.28;38.59;101047.53;4979955;28;99538;-74
2021/08/15 09:09:21;;;;;;;1999.90;999.90;;;;;;;18.32;38.59;101056.50;4978725;28;99711;-73
2021/08/15 09:11:51;;;;;;;1999.90;999.90;;;;;;;18.36;38.56;101056.50;4974669;28;97277;-74
2021/08/15 09:14:19;;;;;;;1999.90;999.90;;;;;;;18.41;38.29;101053.75;4975929;28;98347;-74
2021/08/15 09:17:00;;;;;;;1999.90;999.90;;;;;;;18.42;38.12;101048.34;4972995;28;100470;-74
2021/08/15 09:19:31;;;;;;;1999.90;999.90;;;;;;;18.46;38.12;101030.38;4979635;28;98474;-74
2021/08/15 09:22:14;;;;;;;1999.90;999.90;;;;;;;18.52;38.04;101033.91;4964527;28;97098;-73
2021/08/15 09:24:51;;;;;;;1999.90;999.90;;;;;;;18.59;37.92;101048.22;4996093;28;98243;-73
2021/08/15 09:27:22;;;;;;;1999.90;999.90;;;;;;;18.61;37.65;101030.25;4978210;28;99058;-73
2021/08/15 09:30:15;;;;;;;1999.90;999.90;;;;;;;18.58;37.60;101017.69;4980473;28;99108;-73
2021/08/15 09:32:47;;;;;;;1999.90;999.90;;;;;;;18.61;37.52;101024.84;4979893;28;97306;-74
2021/08/15 09:35:37;;;;;;;1999.90;999.90;;;;;;;18.67;37.61;101022.09;4979105;28;97353;-73
2021/08/15 09:38:07;;;;;;;1999.90;999.90;;;;;;;18.73;37.37;101022.97;4977881;28;99459;-73
2021/08/15 09:40:37;;;;;;;1999.90;999.90;;;;;;;18.70;37.34;101016.72;4978790;28;99296;-73
2021/08/15 09:43:07;;;;;;;1999.90;999.90;;;;;;;18.70;37.21;101014.03;4977997;28;97765;-73
2021/08/15 09:45:45;;;;;;;1999.90;999.90;;;;;;;18.72;37.13;101014.91;4978528;28;98445;-74
2021/08/15 09:48:24;;;;;;;1999.90;999.90;;;;;;;18.75;37.39;101012.22;4975895;28;99616;-75
2021/08/15 09:51:10;;;;;;;1999.90;999.90;;;;;;;18.81;37.26;101017.53;4979688;28;97592;-73
2021/08/15 09:53:40;;;;;;;1999.90;999.90;;;;;;;18.86;37.67;101023.78;4973954;28;99640;-74
2021/08/15 09:56:08;;;;;;;1999.90;999.90;;;;;;;18.89;37.07;101016.56;4961674;28;96954;-74
2021/08/15 09:58:36;;;;;;;1999.90;999.90;;;;;;;18.94;37.24;101013.81;4979241;28;99701;-73
2021/08/15 10:01:06;;;;;;;1999.90;999.90;;;;;;;18.94;37.21;101009.31;4977856;28;100788;-73
2021/08/15 10:03:36;;;;;;;1999.90;999.90;;;;;;;18.94;37.13;101003.03;4977187;28;97766;-74
2021/08/15 10:06:05;;;;;;;1999.90;999.90;;;;;;;18.97;36.98;101000.28;4980884;28;97798;-73
2021/08/15 10:08:34;;;;;;;1999.90;999.90;;;;;;;19.01;37.29;100996.66;4978055;28;99745;-73
2021/08/15 10:11:02;;;;;;;1999.90;999.90;;;;;;;19.02;36.98;100998.47;4979377;28;101655;-72
2021/08/15 10:13:29;;;;;;;1999.90;999.90;;;;;;;19.04;37.47;100989.41;4979522;28;97522;-73
2021/08/15 10:16:01;;;;;;;1999.90;999.90;;;;;;;19.06;37.17;100981.34;4962911;28;97346;-73
2021/08/15 10:18:32;;;;;;;1999.90;999.90;;;;;;;19.08;37.22;100971.41;4978759;28;99086;-73
2021/08/15 10:21:05;;;;;;;1999.90;999.90;;;;;;;19.14;37.27;100968.63;4979948;28;97241;-73
2021/08/15 10:23:41;;;;;;;1999.90;999.90;;;;;;;19.18;36.92;100974.88;4975094;28;97607;-73
2021/08/15 10:26:40;;;;;;;1999.90;999.90;;;;;;;19.16;37.16;100956.03;4995003;28;96920;-73
2021/08/15 10:29:34;;;;;;;1999.90;999.90;;;;;;;19.19;37.11;100955.97;4961688;28;99764;-73
2021/08/15 10:32:16;;;;;;;1999.90;999.90;;;;;;;19.26;36.84;100951.44;4995381;28;100547;-73
2021/08/15 10:35:15;;;;;;;1999.90;999.90;;;;;;;19.32;36.46;100967.56;4977847;28;97776;-72
2021/08/15 10:37:46;;;;;;;1999.90;999.90;;;;;;;19.36;36.25;100958.53;4977010;28;97336;-73
2021/08/15 10:40:59;;;;;;;1999.90;999.90;;;;;;;19.38;36.19;100952.22;4979613;28;99616;-73
2021/08/15 10:43:56;;;;;;;1999.90;999.90;;;;;;;19.44;36.17;100952.13;4982743;28;99970;-74
2021/08/15 10:46:23;;;;;;;1999.90;999.90;;;;;;;19.47;35.65;100954.78;4982720;28;96833;-74
2021/08/15 10:48:52;;;;;;;1999.90;999.90;;;;;;;19.50;35.85;100946.63;4980562;28;98283;-73
2021/08/15 10:51:49;;;;;;;1999.90;999.90;;;;;;;19.55;35.91;100950.19;4965713;28;99490;-74
2021/08/15 10:55:00;;;;;;;1999.90;999.90;;;;;;;19.61;35.70;100950.09;4982193;28;99160;-73